LDPL 200000Z 00000KT CAVOK 08/04 Q1026 LDPL 192330Z 00000KT CAVOK 08/05 Q1026 LDPL 192300Z 00000KT CAVOK 10/07 Q1027 LDPL 192230Z 00000KT CAVOK 09/06 Q1027 LDPL 192200Z 00000KT CAVOK 09/07 Q1027 LDPL 192130Z 00000KT CAVOK 10/08 Q1027 NOSIG LDPL 192100Z 07001KT CAVOK 11/08 Q1027 NOSIG LDPL 192030Z 00000KT CAVOK 12/08 Q1026 NOSIG LDPL 192000Z 00000KT CAVOK 12/07 Q1026 NOSIG LDPL 191930Z 00000KT CAVOK 13/08 Q1026 NOSIG LDPL 191900Z 00000KT CAVOK 15/09 Q1026 NOSIG LDPL 191830Z 00000KT CAVOK 17/10 Q1026 NOSIG LDPL 191800Z 00000KT CAVOK 20/10 Q1026 NOSIG LDPL 191730Z 29003KT CAVOK 21/09 Q1026 NOSIG LDPL 191700Z 27001KT CAVOK 22/09 Q1026 NOSIG LDPL 191630Z 28005KT CAVOK 22/09 Q1026 BECMG 27004KT LDPL 191600Z 29007KT CAVOK 23/08 Q1026 BECMG 27004KT LDPL 191530Z 26006KT 220V300 CAVOK 23/07 Q1026 BECMG 27004KT LDPL 191500Z 29007KT CAVOK 23/09 Q1026 BECMG 27004KT LDPL 191430Z 28009KT CAVOK 23/10 Q1027 NOSIG LDPL 191400Z 26009KT 240V310 CAVOK 23/11 Q1027 NOSIG LDPL 191330Z 27009KT 230V290 CAVOK 24/11 Q1027 NOSIG LDPL 191300Z 25007KT 200V300 CAVOK 23/11 Q1027 NOSIG LDPL 191230Z 25009KT 220V310 CAVOK 23/11 Q1027 NOSIG LDPL 191200Z 27010KT 230V290 CAVOK 23/10 Q1027 NOSIG LDPL 191130Z 25009KT 220V290 CAVOK 23/10 Q1027 NOSIG LDPL 191100Z 26008KT 220V290 CAVOK 24/09 Q1027 NOSIG LDPL 191030Z 26007KT 210V290 CAVOK 23/07 Q1027 NOSIG LDPL 191000Z 27008KT 210V310 CAVOK 23/05 Q1027 NOSIG LDPL 190930Z VRB04KT CAVOK 24/04 Q1027 BECMG 27008KT LDPL 190900Z 25006KT 210V310 CAVOK 23/04 Q1027 NOSIG LDPL 190830Z 27008KT 220V300 CAVOK 23/05 Q1027 NOSIG LDPL 190800Z 27003KT 210V350 CAVOK 23/05 Q1027 NOSIG LDPL 190730Z 31003KT 280V030 CAVOK 23/04 Q1027 NOSIG LDPL 190700Z 36002KT CAVOK 22/07 Q1027 NOSIG LDPL 190630Z 03004KT CAVOK 20/08 Q1027 NOSIG LDPL 190600Z 03005KT CAVOK 19/07 Q1027 NOSIG LDPL 190530Z 04006KT CAVOK 17/06 Q1026 NOSIG LDPL 190500Z 03006KT CAVOK 16/05 Q1026 NOSIG LDPL 190430Z 04008KT CAVOK 15/05 Q1026 NOSIG LDPL 190400Z 05008KT CAVOK 15/05 Q1026 NOSIG LDPL 190330Z 06008KT CAVOK 15/04 Q1026 NOSIG LDPL 190300Z 06008KT CAVOK 15/05 Q1025 NOSIG LDPL 190230Z 06008KT CAVOK 15/06 Q1026 NOSIG LDPL 190200Z 06008KT CAVOK 14/06 Q1026 NOSIG LDPL 190130Z 06007KT CAVOK 13/06 Q1026 LDPL 190100Z 06005KT CAVOK 14/06 Q1025 LDPL 190030Z 05004KT CAVOK 15/06 Q1025 LDPL 190000Z 05007KT CAVOK 17/05 Q1025 LDPL 182330Z 06008KT CAVOK 18/06 Q1025 LDPL 182300Z 06010KT CAVOK 18/05 Q1025 LDPL 182230Z 06006KT 030V100 CAVOK 17/05 Q1025 LDPL 182200Z VRB02KT CAVOK 16/04 Q1025 LDPL 182130Z VRB01KT CAVOK 15/04 Q1025 LDPL 182100Z 00000KT CAVOK 16/04 Q1025 NOSIG LDPL 182030Z 04005KT 360V070 CAVOK 19/04 Q1025 NOSIG LDPL 182000Z 06010KT CAVOK 20/04 Q1024 NOSIG LDPL 181930Z 06010KT CAVOK 20/04 Q1024 NOSIG LDPL 181900Z 06009KT CAVOK 20/04 Q1024 TEMPO 06015KT LDPL 181830Z 07009KT CAVOK 20/04 Q1023 TEMPO 06015KT LDPL 181800Z 06010KT CAVOK 21/05 Q1023 NOSIG LDPL 181730Z 07013KT CAVOK 22/05 Q1023 NOSIG LDPL 181700Z 08014KT CAVOK 23/04 Q1023 NOSIG LDPL 181630Z 07013KT CAVOK 24/06 Q1022 NOSIG LDPL 181600Z 08013KT CAVOK 24/07 Q1022 NOSIG LDPL 181530Z 09014KT CAVOK 24/07 Q1022 NOSIG LDPL 181500Z 10013KT CAVOK 25/08 Q1022 NOSIG LDPL 181430Z 09013KT CAVOK 25/08 Q1022 NOSIG LDPL 181400Z 10014KT CAVOK 24/08 Q1022 NOSIG LDPL 181330Z 10016KT CAVOK 25/09 Q1022 NOSIG LDPL 181300Z 09015KT CAVOK 25/09 Q1022 NOSIG LDPL 181230Z 10017KT CAVOK 24/09 Q1022 NOSIG

METAR Messwerte "PULA" LDPL

Zurück zur Übersicht

Ortsname
Ländercode / m ü. NN
Zeit Temperatur Taupunkt Rel.
Luftfeuchte
Luftdruck:
Altimeter
NN
Station
Wind in Beaufort
(Knoten)
Sichtweite
(Meter)
Wolken
(Meter über Grund)
Wettererscheinung
PULA
HR 63
Fr 20.05. 02:008476 %1026
1026
1018
Windstill>= 10000Nicht signifikant 
PULA
HR 63
Fr 20.05. 01:308581 %1026
1026
1018
Windstill>= 10000Nicht signifikant 
PULA
HR 63
Fr 20.05. 01:0010782 %1027
1027
1019
Windstill>= 10000Nicht signifikant 
PULA
HR 63
Fr 20.05. 00:309681 %1027
1027
1019
Windstill>= 10000Nicht signifikant 
PULA
HR 63
Fr 20.05. 00:009787 %1027
1027
1019
Windstill>= 10000Nicht signifikant 
PULA
HR 63
Do 19.05. 23:3010887 %1027
1027
1019
Windstill>= 10000Nicht signifikant 
PULA
HR 63
Do 19.05. 23:0011882 %1027
1027
1019
ONO 1 (1)>= 10000Nicht signifikant 
PULA
HR 63
Do 19.05. 22:3012876 %1026
1026
1018
Windstill>= 10000Nicht signifikant 
PULA
HR 63
Do 19.05. 22:0012771 %1026
1026
1018
Windstill>= 10000Nicht signifikant 
PULA
HR 63
Do 19.05. 21:3013872 %1026
1026
1018
Windstill>= 10000Nicht signifikant 
PULA
HR 63
Do 19.05. 21:0015967 %1026
1026
1018
Windstill>= 10000Nicht signifikant 
PULA
HR 63
Do 19.05. 20:30171063 %1026
1026
1018
Windstill>= 10000Nicht signifikant 
PULA
HR 63
Do 19.05. 20:00201053 %1026
1026
1018
Windstill>= 10000Nicht signifikant 
PULA
HR 63
Do 19.05. 19:3021946 %1026
1026
1018
WNW 2 (3)>= 10000Nicht signifikant 
PULA
HR 63
Do 19.05. 19:0022943 %1026
1026
1018
W 1 (1)>= 10000Nicht signifikant 
PULA
HR 63
Do 19.05. 18:3022943 %1026
1026
1018
W 2 (5)
Bald Übergang zu:
W 2 (4)
>= 10000Nicht signifikant 
PULA
HR 63
Do 19.05. 18:0023838 %1026
1026
1018
WNW 3 (7)
Bald Übergang zu:
W 2 (4)
>= 10000Nicht signifikant 
PULA
HR 63
Do 19.05. 17:3023736 %1026
1026
1018
W 2 (6)
SW - WNW
Bald Übergang zu:
W 2 (4)
>= 10000Nicht signifikant 
PULA
HR 63
Do 19.05. 17:0023941 %1026
1026
1018
WNW 3 (7)
Bald Übergang zu:
W 2 (4)
>= 10000Nicht signifikant 
PULA
HR 63
Do 19.05. 16:30231044 %1027
1027
1019
W 3 (9)>= 10000Nicht signifikant 
PULA
HR 63
Do 19.05. 16:00231147 %1027
1027
1019
W 3 (9)
WSW - NW
>= 10000Nicht signifikant 
PULA
HR 63
Do 19.05. 15:30241144 %1027
1027
1019
W 3 (9)
SW - WNW
>= 10000Nicht signifikant 
PULA
HR 63
Do 19.05. 15:00231147 %1027
1027
1019
WSW 3 (7)
SSW - WNW
>= 10000Nicht signifikant 
PULA
HR 63
Do 19.05. 14:30231147 %1027
1027
1019
WSW 3 (9)
SW - NW
>= 10000Nicht signifikant 
PULA
HR 63
Do 19.05. 14:00231044 %1027
1027
1019
W 3 (10)
SW - WNW
>= 10000Nicht signifikant 
PULA
HR 63
Do 19.05. 13:30231044 %1027
1027
1019
WSW 3 (9)
SW - WNW
>= 10000Nicht signifikant 
PULA
HR 63
Do 19.05. 13:0024938 %1027
1027
1019
W 3 (8)
SW - WNW
>= 10000Nicht signifikant 
PULA
HR 63
Do 19.05. 12:3023736 %1027
1027
1019
W 3 (7)
SSW - WNW
>= 10000Nicht signifikant 
PULA
HR 63
Do 19.05. 12:0023531 %1027
1027
1019
W 3 (8)
SSW - NW
>= 10000Nicht signifikant 
PULA
HR 63
Do 19.05. 11:3024427 %1027
1027
1019
Uml 2 (4)
Bald Übergang zu:
W 3 (8)
>= 10000Nicht signifikant 
PULA
HR 63
Do 19.05. 11:0023429 %1027
1027
1019
WSW 2 (6)
SSW - NW
>= 10000Nicht signifikant 
PULA
HR 63
Do 19.05. 10:3023531 %1027
1027
1019
W 3 (8)
SW - WNW
>= 10000Nicht signifikant 
PULA
HR 63
Do 19.05. 10:0023531 %1027
1027
1019
W 2 (3)
SSW - N
>= 10000Nicht signifikant 
PULA
HR 63
Do 19.05. 09:3023429 %1027
1027
1019
NW 2 (3)
W - NNO
>= 10000Nicht signifikant 
PULA
HR 63
Do 19.05. 09:0022738 %1027
1027
1019
N 1 (2)>= 10000Nicht signifikant 
PULA
HR 63
Do 19.05. 08:3020846 %1027
1027
1019
NNO 2 (4)>= 10000Nicht signifikant 
PULA
HR 63
Do 19.05. 08:0019746 %1027
1027
1019
NNO 2 (5)>= 10000Nicht signifikant 
PULA
HR 63
Do 19.05. 07:3017648 %1026
1026
1018
NO 2 (6)>= 10000Nicht signifikant 
PULA
HR 63
Do 19.05. 07:0016548 %1026
1026
1018
NNO 2 (6)>= 10000Nicht signifikant 
PULA
HR 63
Do 19.05. 06:3015551 %1026
1026
1018
NO 3 (8)>= 10000Nicht signifikant 
PULA
HR 63
Do 19.05. 06:0015551 %1026
1026
1018
NO 3 (8)>= 10000Nicht signifikant 
PULA
HR 63
Do 19.05. 05:3015448 %1026
1026
1018
ONO 3 (8)>= 10000Nicht signifikant 
PULA
HR 63
Do 19.05. 05:0015551 %1025
1025
1017
ONO 3 (8)>= 10000Nicht signifikant 
PULA
HR 63
Do 19.05. 04:3015655 %1026
1026
1018
ONO 3 (8)>= 10000Nicht signifikant 
PULA
HR 63
Do 19.05. 04:0014658 %1026
1026
1018
ONO 3 (8)>= 10000Nicht signifikant 
PULA
HR 63
Do 19.05. 03:3013662 %1026
1026
1018
ONO 3 (7)>= 10000Nicht signifikant 
PULA
HR 63
Do 19.05. 03:0014658 %1025
1025
1017
ONO 2 (5)>= 10000Nicht signifikant 
PULA
HR 63
Do 19.05. 02:3015655 %1025
1025
1017
NO 2 (4)>= 10000Nicht signifikant 
PULA
HR 63
Do 19.05. 02:0017545 %1025
1025
1017
NO 3 (7)>= 10000Nicht signifikant 
PULA
HR 63
Do 19.05. 01:3018645 %1025
1025
1017
ONO 3 (8)>= 10000Nicht signifikant 
PULA
HR 63
Do 19.05. 01:0018542 %1025
1025
1017
ONO 3 (10)>= 10000Nicht signifikant 
PULA
HR 63
Do 19.05. 00:3017545 %1025
1025
1017
ONO 2 (6)
NNO - O
>= 10000Nicht signifikant 
PULA
HR 63
Do 19.05. 00:0016445 %1025
1025
1017
Uml 1 (2)>= 10000Nicht signifikant 
PULA
HR 63
Mi 18.05. 23:3015448 %1025
1025
1017
Uml 1 (1)>= 10000Nicht signifikant 
PULA
HR 63
Mi 18.05. 23:0016445 %1025
1025
1017
Windstill>= 10000Nicht signifikant 
PULA
HR 63
Mi 18.05. 22:3019437 %1025
1025
1017
NO 2 (5)
N - ONO
>= 10000Nicht signifikant 
PULA
HR 63
Mi 18.05. 22:0020435 %1024
1024
1016
ONO 3 (10)>= 10000Nicht signifikant 
PULA
HR 63
Mi 18.05. 21:3020435 %1024
1024
1016
ONO 3 (10)>= 10000Nicht signifikant 
PULA
HR 63
Mi 18.05. 21:0020435 %1024
1024
1016
ONO 3 (9)
Bald zeitweise:
ONO 4 (15)
>= 10000Nicht signifikant 
PULA
HR 63
Mi 18.05. 20:3020435 %1023
1023
1015
ONO 3 (9)
Bald zeitweise:
ONO 4 (15)
>= 10000Nicht signifikant 
PULA
HR 63
Mi 18.05. 20:0021535 %1023
1023
1015
ONO 3 (10)>= 10000Nicht signifikant 
PULA
HR 63
Mi 18.05. 19:3022533 %1023
1023
1015
ONO 4 (13)>= 10000Nicht signifikant 
PULA
HR 63
Mi 18.05. 19:0023429 %1023
1023
1015
O 4 (14)>= 10000Nicht signifikant 
PULA
HR 63
Mi 18.05. 18:3024631 %1022
1022
1014
ONO 4 (13)>= 10000Nicht signifikant 
PULA
HR 63
Mi 18.05. 18:0024734 %1022
1022
1014
O 4 (13)>= 10000Nicht signifikant 
PULA
HR 63
Mi 18.05. 17:3024734 %1022
1022
1014
O 4 (14)>= 10000Nicht signifikant 
PULA
HR 63
Mi 18.05. 17:0025834 %1022
1022
1014
O 4 (13)>= 10000Nicht signifikant 
PULA
HR 63
Mi 18.05. 16:3025834 %1022
1022
1014
O 4 (13)>= 10000Nicht signifikant 
PULA
HR 63
Mi 18.05. 16:0024836 %1022
1022
1014
O 4 (14)>= 10000Nicht signifikant 
PULA
HR 63
Mi 18.05. 15:3025936 %1022
1022
1014
O 5 (16)>= 10000Nicht signifikant 
PULA
HR 63
Mi 18.05. 15:0025936 %1022
1022
1014
O 4 (15)>= 10000Nicht signifikant 
PULA
HR 63
Mi 18.05. 14:3024938 %1022
1022
1014
O 5 (17)>= 10000Nicht signifikant 

Altimeter: Einstellung am Altimeter (Höhenmesser), die Höhe 0 muss auf diesen Luftdruckwert zeigen, damit das Gerät die Stationshöhe richtig anzeigt.

NN: Luftdruck reduziert auf "Normal Null", auf Meereshöhe, dieser von der Temperatur abhängige Wert wird bisweilen unkorrekt einfach als "Luftdruck" bezeichnet. Eigentlich nur eine fiktive Größe, die es erlaubt, Stationen auf unterschiedlichen Höhen miteinander zu vergleichen.

Station: Realer Luftdruck an der Station.